sensor_id;sensor_type;location;lat;lon;timestamp;P1;durP1;ratioP1;P2;durP2;ratioP2
56667;SDS011;42542;48.360;10.958;2022-12-29T00:01:35;6.40;;;1.87;;
56667;SDS011;42542;48.360;10.958;2022-12-29T00:04:37;5.72;;;1.83;;
56667;SDS011;42542;48.360;10.958;2022-12-29T00:07:39;6.25;;;1.92;;
56667;SDS011;42542;48.360;10.958;2022-12-29T00:10:41;6.22;;;1.88;;
56667;SDS011;42542;48.360;10.958;2022-12-29T00:13:43;7.53;;;1.90;;
56667;SDS011;42542;48.360;10.958;2022-12-29T00:17:04;6.78;;;1.90;;
56667;SDS011;42542;48.360;10.958;2022-12-29T00:20:07;5.63;;;1.63;;
56667;SDS011;42542;48.360;10.958;2022-12-29T00:23:27;5.30;;;1.57;;
56667;SDS011;42542;48.360;10.958;2022-12-29T00:26:49;5.22;;;1.33;;
56667;SDS011;42542;48.360;10.958;2022-12-29T00:30:17;5.57;;;1.63;;
56667;SDS011;42542;48.360;10.958;2022-12-29T00:33:39;6.70;;;1.70;;
56667;SDS011;42542;48.360;10.958;2022-12-29T00:36:59;5.00;;;1.50;;
56667;SDS011;42542;48.360;10.958;2022-12-29T00:40:02;5.45;;;1.80;;
56667;SDS011;42542;48.360;10.958;2022-12-29T00:43:22;6.32;;;1.70;;
56667;SDS011;42542;48.360;10.958;2022-12-29T00:46:44;5.32;;;1.52;;
56667;SDS011;42542;48.360;10.958;2022-12-29T00:49:45;6.85;;;1.67;;
56667;SDS011;42542;48.360;10.958;2022-12-29T00:52:47;6.53;;;1.60;;
56667;SDS011;42542;48.360;10.958;2022-12-29T00:55:49;6.67;;;1.60;;
56667;SDS011;42542;48.360;10.958;2022-12-29T00:58:51;5.10;;;1.60;;
56667;SDS011;42542;48.360;10.958;2022-12-29T01:01:53;6.55;;;1.52;;
56667;SDS011;42542;48.360;10.958;2022-12-29T01:04:56;5.97;;;1.60;;
56667;SDS011;42542;48.360;10.958;2022-12-29T01:07:57;6.53;;;1.70;;
56667;SDS011;42542;48.360;10.958;2022-12-29T01:11:03;5.53;;;1.45;;
56667;SDS011;42542;48.360;10.958;2022-12-29T01:14:08;5.85;;;1.70;;
56667;SDS011;42542;48.360;10.958;2022-12-29T01:17:10;5.85;;;1.75;;
56667;SDS011;42542;48.360;10.958;2022-12-29T01:20:13;6.03;;;1.50;;
56667;SDS011;42542;48.360;10.958;2022-12-29T01:23:16;5.78;;;1.60;;
56667;SDS011;42542;48.360;10.958;2022-12-29T01:26:19;7.43;;;1.57;;
56667;SDS011;42542;48.360;10.958;2022-12-29T01:29:21;4.95;;;1.48;;
56667;SDS011;42542;48.360;10.958;2022-12-29T01:32:23;5.32;;;1.60;;
56667;SDS011;42542;48.360;10.958;2022-12-29T01:35:26;4.87;;;1.70;;
56667;SDS011;42542;48.360;10.958;2022-12-29T01:38:27;7.07;;;1.52;;
56667;SDS011;42542;48.360;10.958;2022-12-29T01:41:30;6.15;;;1.50;;
56667;SDS011;42542;48.360;10.958;2022-12-29T01:48:19;6.75;;;1.60;;
56667;SDS011;42542;48.360;10.958;2022-12-29T01:51:22;6.55;;;1.58;;
56667;SDS011;42542;48.360;10.958;2022-12-29T01:54:30;5.07;;;1.40;;
56667;SDS011;42542;48.360;10.958;2022-12-29T01:57:38;5.00;;;1.30;;
56667;SDS011;42542;48.360;10.958;2022-12-29T02:00:45;4.15;;;1.30;;
56667;SDS011;42542;48.360;10.958;2022-12-29T02:03:48;5.15;;;1.27;;
56667;SDS011;42542;48.360;10.958;2022-12-29T02:06:52;5.83;;;1.40;;
56667;SDS011;42542;48.360;10.958;2022-12-29T02:09:57;5.95;;;1.17;;
56667;SDS011;42542;48.360;10.958;2022-12-29T02:13:02;5.20;;;1.15;;
56667;SDS011;42542;48.360;10.958;2022-12-29T02:29:40;4.07;;;1.10;;
56667;SDS011;42542;48.360;10.958;2022-12-29T02:36:41;4.63;;;1.20;;
56667;SDS011;42542;48.360;10.958;2022-12-29T02:40:15;4.80;;;1.20;;
56667;SDS011;42542;48.360;10.958;2022-12-29T02:43:27;7.78;;;1.10;;
56667;SDS011;42542;48.360;10.958;2022-12-29T02:46:42;4.50;;;1.05;;
56667;SDS011;42542;48.360;10.958;2022-12-29T02:49:51;4.40;;;1.00;;
56667;SDS011;42542;48.360;10.958;2022-12-29T02:53:22;4.70;;;1.40;;
56667;SDS011;42542;48.360;10.958;2022-12-29T02:56:45;4.72;;;1.30;;
56667;SDS011;42542;48.360;10.958;2022-12-29T02:59:58;5.88;;;1.50;;
56667;SDS011;42542;48.360;10.958;2022-12-29T03:09:36;4.25;;;1.20;;
56667;SDS011;42542;48.360;10.958;2022-12-29T03:19:35;6.03;;;1.10;;
56667;SDS011;42542;48.360;10.958;2022-12-29T03:22:43;5.22;;;1.33;;
56667;SDS011;42542;48.360;10.958;2022-12-29T03:25:55;4.20;;;1.05;;
56667;SDS011;42542;48.360;10.958;2022-12-29T03:29:00;6.22;;;1.17;;
56667;SDS011;42542;48.360;10.958;2022-12-29T03:32:03;4.63;;;1.20;;
56667;SDS011;42542;48.360;10.958;2022-12-29T03:35:09;4.13;;;1.00;;
56667;SDS011;42542;48.360;10.958;2022-12-29T03:38:23;4.13;;;1.00;;
56667;SDS011;42542;48.360;10.958;2022-12-29T03:41:31;4.22;;;1.10;;
56667;SDS011;42542;48.360;10.958;2022-12-29T03:44:38;4.07;;;1.00;;
56667;SDS011;42542;48.360;10.958;2022-12-29T03:47:43;4.47;;;1.20;;
56667;SDS011;42542;48.360;10.958;2022-12-29T03:50:46;5.95;;;1.10;;
56667;SDS011;42542;48.360;10.958;2022-12-29T03:53:49;3.63;;;0.93;;
56667;SDS011;42542;48.360;10.958;2022-12-29T03:56:51;3.58;;;1.00;;
56667;SDS011;42542;48.360;10.958;2022-12-29T04:00:04;3.28;;;0.90;;
56667;SDS011;42542;48.360;10.958;2022-12-29T04:03:15;4.60;;;0.95;;
56667;SDS011;42542;48.360;10.958;2022-12-29T04:06:18;3.63;;;0.90;;
56667;SDS011;42542;48.360;10.958;2022-12-29T04:09:25;4.70;;;1.00;;
56667;SDS011;42542;48.360;10.958;2022-12-29T04:12:27;5.60;;;0.85;;
56667;SDS011;42542;48.360;10.958;2022-12-29T04:15:29;3.30;;;0.90;;
56667;SDS011;42542;48.360;10.958;2022-12-29T04:18:31;4.10;;;1.00;;
56667;SDS011;42542;48.360;10.958;2022-12-29T04:21:34;4.68;;;0.93;;
56667;SDS011;42542;48.360;10.958;2022-12-29T04:24:36;3.90;;;1.05;;
56667;SDS011;42542;48.360;10.958;2022-12-29T04:27:38;3.75;;;0.90;;
56667;SDS011;42542;48.360;10.958;2022-12-29T04:30:54;6.25;;;1.20;;
56667;SDS011;42542;48.360;10.958;2022-12-29T04:33:59;4.45;;;1.20;;
56667;SDS011;42542;48.360;10.958;2022-12-29T04:37:01;4.77;;;0.90;;
56667;SDS011;42542;48.360;10.958;2022-12-29T04:40:04;3.90;;;1.00;;
56667;SDS011;42542;48.360;10.958;2022-12-29T04:43:07;4.65;;;0.98;;
56667;SDS011;42542;48.360;10.958;2022-12-29T04:46:19;4.00;;;1.00;;
56667;SDS011;42542;48.360;10.958;2022-12-29T04:49:32;3.92;;;0.90;;
56667;SDS011;42542;48.360;10.958;2022-12-29T04:52:44;3.80;;;0.95;;
56667;SDS011;42542;48.360;10.958;2022-12-29T04:55:50;6.20;;;1.00;;
56667;SDS011;42542;48.360;10.958;2022-12-29T04:58:54;3.42;;;0.95;;
56667;SDS011;42542;48.360;10.958;2022-12-29T05:01:56;3.90;;;1.05;;
56667;SDS011;42542;48.360;10.958;2022-12-29T05:04:58;8.27;;;1.05;;
56667;SDS011;42542;48.360;10.958;2022-12-29T05:08:00;5.20;;;1.27;;
56667;SDS011;42542;48.360;10.958;2022-12-29T05:11:04;4.68;;;1.10;;
56667;SDS011;42542;48.360;10.958;2022-12-29T05:14:07;4.10;;;1.00;;
56667;SDS011;42542;48.360;10.958;2022-12-29T05:17:11;5.13;;;0.90;;
56667;SDS011;42542;48.360;10.958;2022-12-29T05:20:14;4.63;;;1.15;;
56667;SDS011;42542;48.360;10.958;2022-12-29T05:23:16;4.72;;;1.30;;
56667;SDS011;42542;48.360;10.958;2022-12-29T05:26:23;7.28;;;1.40;;
56667;SDS011;42542;48.360;10.958;2022-12-29T05:29:40;6.28;;;1.50;;
56667;SDS011;42542;48.360;10.958;2022-12-29T05:32:42;7.32;;;1.70;;
56667;SDS011;42542;48.360;10.958;2022-12-29T05:35:45;5.00;;;1.40;;
56667;SDS011;42542;48.360;10.958;2022-12-29T05:38:48;5.97;;;1.27;;
56667;SDS011;42542;48.360;10.958;2022-12-29T05:41:51;4.40;;;1.30;;
56667;SDS011;42542;48.360;10.958;2022-12-29T05:44:59;5.22;;;1.30;;
56667;SDS011;42542;48.360;10.958;2022-12-29T05:48:19;5.03;;;1.30;;
56667;SDS011;42542;48.360;10.958;2022-12-29T05:51:40;5.28;;;1.30;;
56667;SDS011;42542;48.360;10.958;2022-12-29T05:54:41;6.82;;;1.30;;
56667;SDS011;42542;48.360;10.958;2022-12-29T05:57:47;4.28;;;1.20;;
56667;SDS011;42542;48.360;10.958;2022-12-29T06:00:50;7.10;;;1.30;;
56667;SDS011;42542;48.360;10.958;2022-12-29T06:03:53;4.72;;;1.27;;
56667;SDS011;42542;48.360;10.958;2022-12-29T06:06:55;5.82;;;1.40;;
56667;SDS011;42542;48.360;10.958;2022-12-29T06:10:07;5.17;;;1.10;;
56667;SDS011;42542;48.360;10.958;2022-12-29T06:13:17;9.93;;;3.17;;
56667;SDS011;42542;48.360;10.958;2022-12-29T06:16:22;5.40;;;1.58;;
56667;SDS011;42542;48.360;10.958;2022-12-29T06:19:28;6.03;;;1.50;;
56667;SDS011;42542;48.360;10.958;2022-12-29T06:22:30;4.80;;;1.10;;
56667;SDS011;42542;48.360;10.958;2022-12-29T06:25:33;7.07;;;1.33;;
56667;SDS011;42542;48.360;10.958;2022-12-29T06:28:37;4.85;;;1.35;;
56667;SDS011;42542;48.360;10.958;2022-12-29T06:31:39;6.28;;;1.30;;
56667;SDS011;42542;48.360;10.958;2022-12-29T06:34:41;5.22;;;1.40;;
56667;SDS011;42542;48.360;10.958;2022-12-29T06:37:43;5.43;;;1.55;;
56667;SDS011;42542;48.360;10.958;2022-12-29T06:40:45;7.10;;;1.70;;
56667;SDS011;42542;48.360;10.958;2022-12-29T06:44:04;5.45;;;1.40;;
56667;SDS011;42542;48.360;10.958;2022-12-29T06:47:28;7.30;;;1.60;;
56667;SDS011;42542;48.360;10.958;2022-12-29T06:50:32;5.33;;;1.30;;
56667;SDS011;42542;48.360;10.958;2022-12-29T06:53:33;5.90;;;1.50;;
56667;SDS011;42542;48.360;10.958;2022-12-29T06:56:36;5.25;;;1.58;;
56667;SDS011;42542;48.360;10.958;2022-12-29T06:59:37;5.40;;;1.30;;
56667;SDS011;42542;48.360;10.958;2022-12-29T07:02:39;4.55;;;1.23;;
56667;SDS011;42542;48.360;10.958;2022-12-29T07:05:41;6.07;;;1.30;;
56667;SDS011;42542;48.360;10.958;2022-12-29T07:08:44;4.30;;;1.30;;
56667;SDS011;42542;48.360;10.958;2022-12-29T07:11:46;4.97;;;1.27;;
56667;SDS011;42542;48.360;10.958;2022-12-29T07:14:48;5.40;;;1.23;;
56667;SDS011;42542;48.360;10.958;2022-12-29T07:17:49;4.97;;;1.30;;
56667;SDS011;42542;48.360;10.958;2022-12-29T07:20:52;4.97;;;1.40;;
56667;SDS011;42542;48.360;10.958;2022-12-29T07:23:54;4.85;;;1.40;;
56667;SDS011;42542;48.360;10.958;2022-12-29T07:26:55;5.10;;;1.40;;
56667;SDS011;42542;48.360;10.958;2022-12-29T07:29:57;4.60;;;1.30;;
56667;SDS011;42542;48.360;10.958;2022-12-29T07:32:59;7.00;;;1.23;;
56667;SDS011;42542;48.360;10.958;2022-12-29T07:36:01;4.70;;;1.33;;
56667;SDS011;42542;48.360;10.958;2022-12-29T07:39:04;4.80;;;1.40;;
56667;SDS011;42542;48.360;10.958;2022-12-29T07:42:05;5.40;;;1.40;;
56667;SDS011;42542;48.360;10.958;2022-12-29T07:45:16;5.72;;;1.50;;
56667;SDS011;42542;48.360;10.958;2022-12-29T07:48:22;6.85;;;1.60;;
56667;SDS011;42542;48.360;10.958;2022-12-29T07:51:23;4.87;;;1.50;;
56667;SDS011;42542;48.360;10.958;2022-12-29T07:54:25;5.65;;;1.38;;
56667;SDS011;42542;48.360;10.958;2022-12-29T07:57:27;5.40;;;1.50;;
56667;SDS011;42542;48.360;10.958;2022-12-29T08:00:32;5.47;;;1.40;;
56667;SDS011;42542;48.360;10.958;2022-12-29T08:03:34;6.72;;;1.40;;
56667;SDS011;42542;48.360;10.958;2022-12-29T08:06:37;5.07;;;1.38;;
56667;SDS011;42542;48.360;10.958;2022-12-29T08:09:39;5.05;;;1.35;;
56667;SDS011;42542;48.360;10.958;2022-12-29T08:12:41;5.00;;;1.37;;
56667;SDS011;42542;48.360;10.958;2022-12-29T08:15:44;6.57;;;1.63;;
56667;SDS011;42542;48.360;10.958;2022-12-29T08:18:46;6.20;;;1.70;;
56667;SDS011;42542;48.360;10.958;2022-12-29T08:21:48;5.07;;;1.43;;
56667;SDS011;42542;48.360;10.958;2022-12-29T08:24:50;11.32;;;1.50;;
56667;SDS011;42542;48.360;10.958;2022-12-29T08:27:53;4.97;;;1.48;;
56667;SDS011;42542;48.360;10.958;2022-12-29T08:30:57;7.03;;;1.25;;
56667;SDS011;42542;48.360;10.958;2022-12-29T08:34:00;6.07;;;1.40;;
56667;SDS011;42542;48.360;10.958;2022-12-29T08:37:04;6.40;;;1.50;;
56667;SDS011;42542;48.360;10.958;2022-12-29T08:40:07;5.05;;;1.50;;
56667;SDS011;42542;48.360;10.958;2022-12-29T08:43:09;6.50;;;1.67;;
56667;SDS011;42542;48.360;10.958;2022-12-29T08:46:11;5.00;;;1.40;;
56667;SDS011;42542;48.360;10.958;2022-12-29T08:49:13;7.07;;;1.80;;
56667;SDS011;42542;48.360;10.958;2022-12-29T08:52:14;5.37;;;1.70;;
56667;SDS011;42542;48.360;10.958;2022-12-29T08:55:16;6.38;;;1.50;;
56667;SDS011;42542;48.360;10.958;2022-12-29T08:58:18;4.60;;;1.40;;
56667;SDS011;42542;48.360;10.958;2022-12-29T09:01:20;5.68;;;1.38;;
56667;SDS011;42542;48.360;10.958;2022-12-29T09:04:23;5.18;;;1.50;;
56667;SDS011;42542;48.360;10.958;2022-12-29T09:07:25;5.78;;;1.60;;
56667;SDS011;42542;48.360;10.958;2022-12-29T09:10:27;7.80;;;1.58;;
56667;SDS011;42542;48.360;10.958;2022-12-29T09:13:29;5.87;;;1.40;;
56667;SDS011;42542;48.360;10.958;2022-12-29T09:16:31;5.78;;;1.52;;
56667;SDS011;42542;48.360;10.958;2022-12-29T09:19:32;5.95;;;1.60;;
56667;SDS011;42542;48.360;10.958;2022-12-29T09:22:35;6.55;;;1.50;;
56667;SDS011;42542;48.360;10.958;2022-12-29T09:25:37;4.88;;;1.30;;
56667;SDS011;42542;48.360;10.958;2022-12-29T09:28:39;6.30;;;1.55;;
56667;SDS011;42542;48.360;10.958;2022-12-29T09:31:41;6.57;;;1.42;;
56667;SDS011;42542;48.360;10.958;2022-12-29T09:34:43;5.83;;;1.70;;
56667;SDS011;42542;48.360;10.958;2022-12-29T09:37:45;6.07;;;1.27;;
56667;SDS011;42542;48.360;10.958;2022-12-29T09:40:49;7.63;;;1.50;;
56667;SDS011;42542;48.360;10.958;2022-12-29T09:44:31;6.32;;;1.55;;
56667;SDS011;42542;48.360;10.958;2022-12-29T09:47:44;5.78;;;1.38;;
56667;SDS011;42542;48.360;10.958;2022-12-29T09:50:48;5.60;;;1.40;;
56667;SDS011;42542;48.360;10.958;2022-12-29T09:53:58;7.00;;;1.38;;
56667;SDS011;42542;48.360;10.958;2022-12-29T09:57:10;6.50;;;1.20;;
56667;SDS011;42542;48.360;10.958;2022-12-29T10:00:18;5.13;;;1.17;;
56667;SDS011;42542;48.360;10.958;2022-12-29T10:03:44;4.32;;;1.20;;
56667;SDS011;42542;48.360;10.958;2022-12-29T10:06:57;4.55;;;1.00;;
56667;SDS011;42542;48.360;10.958;2022-12-29T10:23:55;4.15;;;1.10;;
56667;SDS011;42542;48.360;10.958;2022-12-29T10:26:57;5.30;;;1.10;;
56667;SDS011;42542;48.360;10.958;2022-12-29T10:30:01;5.05;;;1.20;;
56667;SDS011;42542;48.360;10.958;2022-12-29T10:33:05;5.65;;;1.33;;
56667;SDS011;42542;48.360;10.958;2022-12-29T10:36:16;4.88;;;1.10;;
56667;SDS011;42542;48.360;10.958;2022-12-29T10:39:45;5.03;;;1.00;;
56667;SDS011;42542;48.360;10.958;2022-12-29T10:42:53;5.00;;;0.97;;
56667;SDS011;42542;48.360;10.958;2022-12-29T10:46:02;5.07;;;1.00;;
56667;SDS011;42542;48.360;10.958;2022-12-29T10:49:08;6.13;;;1.40;;
56667;SDS011;42542;48.360;10.958;2022-12-29T10:52:23;5.47;;;1.00;;
56667;SDS011;42542;48.360;10.958;2022-12-29T10:55:32;4.93;;;1.10;;
56667;SDS011;42542;48.360;10.958;2022-12-29T10:58:37;5.05;;;1.00;;
56667;SDS011;42542;48.360;10.958;2022-12-29T11:12:38;5.03;;;1.00;;
56667;SDS011;42542;48.360;10.958;2022-12-29T11:15:46;4.27;;;1.00;;
56667;SDS011;42542;48.360;10.958;2022-12-29T11:18:49;3.05;;;0.82;;
56667;SDS011;42542;48.360;10.958;2022-12-29T11:21:53;4.60;;;1.00;;
56667;SDS011;42542;48.360;10.958;2022-12-29T11:24:55;5.03;;;1.17;;
56667;SDS011;42542;48.360;10.958;2022-12-29T11:28:16;4.40;;;1.10;;
56667;SDS011;42542;48.360;10.958;2022-12-29T11:31:17;4.18;;;1.00;;
56667;SDS011;42542;48.360;10.958;2022-12-29T11:34:34;4.47;;;0.90;;
56667;SDS011;42542;48.360;10.958;2022-12-29T11:37:37;4.67;;;0.90;;
56667;SDS011;42542;48.360;10.958;2022-12-29T11:40:40;4.28;;;0.90;;
56667;SDS011;42542;48.360;10.958;2022-12-29T11:43:43;4.93;;;1.00;;
56667;SDS011;42542;48.360;10.958;2022-12-29T11:46:48;3.63;;;0.90;;
56667;SDS011;42542;48.360;10.958;2022-12-29T11:49:53;6.75;;;1.02;;
56667;SDS011;42542;48.360;10.958;2022-12-29T11:52:59;5.07;;;1.08;;
56667;SDS011;42542;48.360;10.958;2022-12-29T11:56:05;4.32;;;1.00;;
56667;SDS011;42542;48.360;10.958;2022-12-29T11:59:55;4.13;;;1.10;;
56667;SDS011;42542;48.360;10.958;2022-12-29T12:05:54;10.05;;;1.20;;
56667;SDS011;42542;48.360;10.958;2022-12-29T12:09:01;4.43;;;1.10;;
56667;SDS011;42542;48.360;10.958;2022-12-29T12:12:08;5.88;;;1.20;;
56667;SDS011;42542;48.360;10.958;2022-12-29T12:15:54;4.07;;;1.35;;
56667;SDS011;42542;48.360;10.958;2022-12-29T12:19:03;4.05;;;1.20;;
56667;SDS011;42542;48.360;10.958;2022-12-29T12:25:42;3.97;;;1.10;;
56667;SDS011;42542;48.360;10.958;2022-12-29T12:28:53;4.43;;;1.10;;
56667;SDS011;42542;48.360;10.958;2022-12-29T12:32:01;5.37;;;1.30;;
56667;SDS011;42542;48.360;10.958;2022-12-29T12:35:22;4.60;;;1.20;;
56667;SDS011;42542;48.360;10.958;2022-12-29T12:55:58;5.20;;;1.03;;
56667;SDS011;42542;48.360;10.958;2022-12-29T13:02:37;5.07;;;1.00;;
56667;SDS011;42542;48.360;10.958;2022-12-29T13:09:12;5.17;;;1.20;;
56667;SDS011;42542;48.360;10.958;2022-12-29T13:18:46;3.67;;;1.10;;
56667;SDS011;42542;48.360;10.958;2022-12-29T13:22:21;4.95;;;1.13;;
56667;SDS011;42542;48.360;10.958;2022-12-29T13:25:39;4.72;;;1.00;;
56667;SDS011;42542;48.360;10.958;2022-12-29T13:38:40;4.25;;;1.00;;
56667;SDS011;42542;48.360;10.958;2022-12-29T13:41:49;3.17;;;0.80;;
56667;SDS011;42542;48.360;10.958;2022-12-29T13:51:07;6.13;;;1.02;;
56667;SDS011;42542;48.360;10.958;2022-12-29T13:57:44;5.67;;;1.10;;
56667;SDS011;42542;48.360;10.958;2022-12-29T14:00:57;4.20;;;1.20;;
56667;SDS011;42542;48.360;10.958;2022-12-29T14:04:02;2.75;;;0.80;;
56667;SDS011;42542;48.360;10.958;2022-12-29T14:07:15;3.63;;;1.00;;
56667;SDS011;42542;48.360;10.958;2022-12-29T14:13:36;6.32;;;1.00;;
56667;SDS011;42542;48.360;10.958;2022-12-29T14:16:41;3.33;;;0.90;;
56667;SDS011;42542;48.360;10.958;2022-12-29T14:19:44;3.87;;;1.00;;
56667;SDS011;42542;48.360;10.958;2022-12-29T14:23:01;4.40;;;1.00;;
56667;SDS011;42542;48.360;10.958;2022-12-29T14:26:13;4.10;;;1.25;;
56667;SDS011;42542;48.360;10.958;2022-12-29T14:29:41;4.53;;;1.10;;
56667;SDS011;42542;48.360;10.958;2022-12-29T14:32:41;4.90;;;1.13;;
56667;SDS011;42542;48.360;10.958;2022-12-29T14:36:19;3.25;;;0.95;;
56667;SDS011;42542;48.360;10.958;2022-12-29T14:39:41;3.85;;;1.02;;
56667;SDS011;42542;48.360;10.958;2022-12-29T14:42:46;5.03;;;1.20;;
56667;SDS011;42542;48.360;10.958;2022-12-29T14:45:56;4.07;;;1.10;;
56667;SDS011;42542;48.360;10.958;2022-12-29T14:49:01;4.97;;;1.13;;
56667;SDS011;42542;48.360;10.958;2022-12-29T14:52:46;4.63;;;1.17;;
56667;SDS011;42542;48.360;10.958;2022-12-29T14:55:31;5.53;;;1.33;;
56667;SDS011;42542;48.360;10.958;2022-12-29T14:58:50;5.20;;;1.20;;
56667;SDS011;42542;48.360;10.958;2022-12-29T15:01:58;4.75;;;1.20;;
56667;SDS011;42542;48.360;10.958;2022-12-29T15:05:04;4.37;;;1.20;;
56667;SDS011;42542;48.360;10.958;2022-12-29T15:08:08;5.60;;;1.00;;
56667;SDS011;42542;48.360;10.958;2022-12-29T15:11:23;3.85;;;1.00;;
56667;SDS011;42542;48.360;10.958;2022-12-29T15:14:50;4.30;;;1.13;;
56667;SDS011;42542;48.360;10.958;2022-12-29T15:17:54;4.37;;;1.10;;
56667;SDS011;42542;48.360;10.958;2022-12-29T15:20:57;5.20;;;1.20;;
56667;SDS011;42542;48.360;10.958;2022-12-29T15:24:02;4.28;;;1.02;;
56667;SDS011;42542;48.360;10.958;2022-12-29T15:27:05;4.05;;;1.10;;
56667;SDS011;42542;48.360;10.958;2022-12-29T15:30:12;5.15;;;1.02;;
56667;SDS011;42542;48.360;10.958;2022-12-29T15:33:19;6.07;;;1.20;;
56667;SDS011;42542;48.360;10.958;2022-12-29T15:39:27;5.50;;;1.30;;
56667;SDS011;42542;48.360;10.958;2022-12-29T15:42:34;5.93;;;1.20;;
56667;SDS011;42542;48.360;10.958;2022-12-29T15:45:41;5.00;;;1.20;;
56667;SDS011;42542;48.360;10.958;2022-12-29T15:48:43;5.68;;;1.25;;
56667;SDS011;42542;48.360;10.958;2022-12-29T15:51:45;4.90;;;1.30;;
56667;SDS011;42542;48.360;10.958;2022-12-29T15:54:48;4.28;;;1.20;;
56667;SDS011;42542;48.360;10.958;2022-12-29T15:57:51;5.88;;;1.30;;
56667;SDS011;42542;48.360;10.958;2022-12-29T16:01:00;4.47;;;1.20;;
56667;SDS011;42542;48.360;10.958;2022-12-29T16:04:04;5.60;;;1.40;;
56667;SDS011;42542;48.360;10.958;2022-12-29T16:10:52;13.65;;;3.58;;
56667;SDS011;42542;48.360;10.958;2022-12-29T16:13:57;28.85;;;9.10;;
56667;SDS011;42542;48.360;10.958;2022-12-29T16:17:01;10.20;;;3.22;;
56667;SDS011;42542;48.360;10.958;2022-12-29T16:20:21;9.18;;;2.90;;
56667;SDS011;42542;48.360;10.958;2022-12-29T16:23:27;7.00;;;1.90;;
56667;SDS011;42542;48.360;10.958;2022-12-29T16:26:30;6.53;;;1.90;;
56667;SDS011;42542;48.360;10.958;2022-12-29T16:29:33;7.00;;;2.70;;
56667;SDS011;42542;48.360;10.958;2022-12-29T16:32:44;8.30;;;2.30;;
56667;SDS011;42542;48.360;10.958;2022-12-29T16:35:50;8.10;;;2.50;;
56667;SDS011;42542;48.360;10.958;2022-12-29T16:42:34;8.68;;;2.63;;
56667;SDS011;42542;48.360;10.958;2022-12-29T16:48:54;6.88;;;2.50;;
56667;SDS011;42542;48.360;10.958;2022-12-29T16:51:58;7.18;;;2.53;;
56667;SDS011;42542;48.360;10.958;2022-12-29T16:55:00;5.80;;;2.00;;
56667;SDS011;42542;48.360;10.958;2022-12-29T16:58:02;6.70;;;1.70;;
56667;SDS011;42542;48.360;10.958;2022-12-29T17:01:04;8.15;;;3.38;;
56667;SDS011;42542;48.360;10.958;2022-12-29T17:04:10;8.70;;;3.40;;
56667;SDS011;42542;48.360;10.958;2022-12-29T17:07:18;8.98;;;4.38;;
56667;SDS011;42542;48.360;10.958;2022-12-29T17:10:21;6.30;;;2.65;;
56667;SDS011;42542;48.360;10.958;2022-12-29T17:13:43;5.50;;;1.70;;
56667;SDS011;42542;48.360;10.958;2022-12-29T17:16:45;8.00;;;2.00;;
56667;SDS011;42542;48.360;10.958;2022-12-29T17:19:51;5.97;;;1.70;;
56667;SDS011;42542;48.360;10.958;2022-12-29T17:22:55;6.22;;;2.10;;
56667;SDS011;42542;48.360;10.958;2022-12-29T17:25:58;6.97;;;2.45;;
56667;SDS011;42542;48.360;10.958;2022-12-29T17:28:59;6.20;;;1.85;;
56667;SDS011;42542;48.360;10.958;2022-12-29T17:32:02;10.85;;;5.05;;
56667;SDS011;42542;48.360;10.958;2022-12-29T17:35:12;9.60;;;4.30;;
56667;SDS011;42542;48.360;10.958;2022-12-29T17:38:19;9.43;;;4.57;;
56667;SDS011;42542;48.360;10.958;2022-12-29T17:41:21;8.60;;;3.70;;
56667;SDS011;42542;48.360;10.958;2022-12-29T17:44:22;10.23;;;3.80;;
56667;SDS011;42542;48.360;10.958;2022-12-29T17:47:26;10.50;;;3.97;;
56667;SDS011;42542;48.360;10.958;2022-12-29T17:54:56;10.43;;;4.10;;
56667;SDS011;42542;48.360;10.958;2022-12-29T17:57:58;12.10;;;4.32;;
56667;SDS011;42542;48.360;10.958;2022-12-29T18:01:00;9.25;;;4.05;;
56667;SDS011;42542;48.360;10.958;2022-12-29T18:04:04;11.38;;;4.63;;
56667;SDS011;42542;48.360;10.958;2022-12-29T18:07:09;11.68;;;4.25;;
56667;SDS011;42542;48.360;10.958;2022-12-29T18:10:13;10.27;;;3.53;;
56667;SDS011;42542;48.360;10.958;2022-12-29T18:13:25;8.50;;;2.92;;
56667;SDS011;42542;48.360;10.958;2022-12-29T18:16:45;8.80;;;3.05;;
56667;SDS011;42542;48.360;10.958;2022-12-29T18:19:47;8.33;;;2.80;;
56667;SDS011;42542;48.360;10.958;2022-12-29T18:22:51;6.82;;;2.47;;
56667;SDS011;42542;48.360;10.958;2022-12-29T18:28:57;9.88;;;2.95;;
56667;SDS011;42542;48.360;10.958;2022-12-29T18:32:00;6.93;;;2.22;;
56667;SDS011;42542;48.360;10.958;2022-12-29T18:35:02;6.10;;;2.10;;
56667;SDS011;42542;48.360;10.958;2022-12-29T18:38:04;6.80;;;1.90;;
56667;SDS011;42542;48.360;10.958;2022-12-29T18:41:28;7.30;;;2.23;;
56667;SDS011;42542;48.360;10.958;2022-12-29T18:44:30;5.60;;;1.90;;
56667;SDS011;42542;48.360;10.958;2022-12-29T18:47:32;6.38;;;2.47;;
56667;SDS011;42542;48.360;10.958;2022-12-29T18:50:34;7.37;;;2.63;;
56667;SDS011;42542;48.360;10.958;2022-12-29T18:53:36;6.85;;;2.42;;
56667;SDS011;42542;48.360;10.958;2022-12-29T18:56:38;21.17;;;8.38;;
56667;SDS011;42542;48.360;10.958;2022-12-29T18:59:40;12.25;;;5.30;;
56667;SDS011;42542;48.360;10.958;2022-12-29T19:02:42;9.83;;;3.47;;
56667;SDS011;42542;48.360;10.958;2022-12-29T19:05:45;9.48;;;3.70;;
56667;SDS011;42542;48.360;10.958;2022-12-29T19:08:48;10.70;;;4.10;;
56667;SDS011;42542;48.360;10.958;2022-12-29T19:11:50;9.88;;;3.80;;
56667;SDS011;42542;48.360;10.958;2022-12-29T19:14:51;9.75;;;3.70;;
56667;SDS011;42542;48.360;10.958;2022-12-29T19:17:54;9.98;;;3.63;;
56667;SDS011;42542;48.360;10.958;2022-12-29T19:21:19;9.63;;;3.35;;
56667;SDS011;42542;48.360;10.958;2022-12-29T19:24:24;9.40;;;3.40;;
56667;SDS011;42542;48.360;10.958;2022-12-29T19:27:25;21.05;;;7.70;;
56667;SDS011;42542;48.360;10.958;2022-12-29T19:30:27;22.70;;;9.57;;
56667;SDS011;42542;48.360;10.958;2022-12-29T19:33:29;12.87;;;5.40;;
56667;SDS011;42542;48.360;10.958;2022-12-29T19:36:33;13.98;;;5.95;;
56667;SDS011;42542;48.360;10.958;2022-12-29T19:39:34;17.98;;;8.25;;
56667;SDS011;42542;48.360;10.958;2022-12-29T19:42:37;14.60;;;5.80;;
56667;SDS011;42542;48.360;10.958;2022-12-29T19:45:39;10.50;;;4.40;;
56667;SDS011;42542;48.360;10.958;2022-12-29T19:48:42;9.35;;;3.60;;
56667;SDS011;42542;48.360;10.958;2022-12-29T19:51:44;8.40;;;2.60;;
56667;SDS011;42542;48.360;10.958;2022-12-29T19:54:46;5.93;;;1.87;;
56667;SDS011;42542;48.360;10.958;2022-12-29T19:57:48;6.45;;;2.30;;
56667;SDS011;42542;48.360;10.958;2022-12-29T20:00:50;7.68;;;2.58;;
56667;SDS011;42542;48.360;10.958;2022-12-29T20:03:51;5.07;;;1.60;;
56667;SDS011;42542;48.360;10.958;2022-12-29T20:06:53;9.18;;;2.80;;
56667;SDS011;42542;48.360;10.958;2022-12-29T20:09:55;7.43;;;2.20;;
56667;SDS011;42542;48.360;10.958;2022-12-29T20:12:57;6.15;;;1.77;;
56667;SDS011;42542;48.360;10.958;2022-12-29T20:15:59;7.93;;;2.40;;
56667;SDS011;42542;48.360;10.958;2022-12-29T20:19:02;5.22;;;1.60;;
56667;SDS011;42542;48.360;10.958;2022-12-29T20:22:06;5.68;;;1.70;;
56667;SDS011;42542;48.360;10.958;2022-12-29T20:25:09;6.00;;;1.60;;
56667;SDS011;42542;48.360;10.958;2022-12-29T20:28:31;5.07;;;1.58;;
56667;SDS011;42542;48.360;10.958;2022-12-29T20:31:35;4.65;;;1.52;;
56667;SDS011;42542;48.360;10.958;2022-12-29T20:34:38;6.00;;;1.80;;
56667;SDS011;42542;48.360;10.958;2022-12-29T20:37:41;5.80;;;1.60;;
56667;SDS011;42542;48.360;10.958;2022-12-29T20:40:44;6.10;;;1.90;;
56667;SDS011;42542;48.360;10.958;2022-12-29T20:43:49;5.50;;;1.60;;
56667;SDS011;42542;48.360;10.958;2022-12-29T20:46:53;5.30;;;1.40;;